Higginsport, Ohio
Current Conditions -  °F | °C
As of 8:55 PM on Sunday 21 Dec 2014 (Local Time) from KFGX Reporting Station
Clear Clear  
Wind Chill: 22°   Ceiling: Unl
Heat Index: 28°   Visibility: 10mi
Dew Point: 25°   Wind: 6mph
Humidity: 88%   Direction: 90°E
Pressure: 30.16"   Gusts: NA
Location:  38.79°N, 83.97°W
Report Text: KFGX 220155Z AUTO 09005KT 10SM CLR M02/M04 A3016 RMK AO2 T10201037
Loading
Personal Weather Stations






























Interactive Weather Map New forecast layout! Learn more

10-Day Weather Forecast

Advertisements
Track Severe Weather on mobile